Time;durP1;ratioP1;P1;durP2;ratioP2;P2;SDS_P1;SDS_P2;PMS_P1;PMS_P2;Temp;Humidity;BMP_temperature;BMP_pressure;BME280_temperature;BME280_humidity;BME280_pressure;Samples;Min_cycle;Max_cycle;Signal;HPM_P1;HPM_P2
2022/08/15 00:00:44;;;;;;;;;;;14.40;99.90;;;;;;5094294;28;19918;-69
2022/08/15 00:03:24;;;;;;;;;;;14.40;99.90;;;;;;5094212;28;19987;-69
2022/08/15 00:05:52;;;;;;;;;;;14.50;99.90;;;;;;5094172;28;19908;-69
2022/08/15 00:08:18;;;;;;;;;;;14.60;99.90;;;;;;5093932;28;19990;-69
2022/08/15 00:10:46;;;;;;;;;;;14.80;99.90;;;;;;5094112;28;20332;-69
2022/08/15 00:13:14;;;;;;;;;;;14.80;99.50;;;;;;5094094;28;19908;-69
2022/08/15 00:15:41;;;;;;;;;;;14.90;98.90;;;;;;5093851;28;19916;-70
2022/08/15 00:18:08;;;;;;;;;;;14.90;98.80;;;;;;5093595;28;19953;-70
2022/08/15 00:20:37;;;;;;;;;;;15.00;98.30;;;;;;5093828;28;19915;-69
2022/08/15 00:23:07;;;;;;;;;;;14.90;98.70;;;;;;5093818;28;19912;-69
2022/08/15 00:25:37;;;;;;;;;;;15.00;98.20;;;;;;5093839;28;20247;-70
2022/08/15 00:28:07;;;;;;;;;;;15.10;98.10;;;;;;5093616;28;19916;-69
2022/08/15 00:30:36;;;;;;;;;;;15.20;99.10;;;;;;5093771;28;20266;-69
2022/08/15 00:33:04;;;;;;;;;;;15.20;97.10;;;;;;5093705;28;19908;-69
2022/08/15 00:35:36;;;;;;;;;;;15.20;97.90;;;;;;5093372;28;20403;-69
2022/08/15 00:38:04;;;;;;;;;;;15.20;97.30;;;;;;5093518;28;19912;-69
2022/08/15 00:41:39;;;;;;;;;;;15.30;97.30;;;;;;5093658;28;19908;-69
2022/08/15 00:43:19;;;;;;;;;;;15.40;97.00;;;;;;5093528;28;19909;-69
2022/08/15 00:45:46;;;;;;;;;;;15.40;97.60;;;;;;5093467;28;19920;-69
2022/08/15 00:51:14;;;;;;;;;;;15.60;96.20;;;;;;5088563;28;20363;-69
2022/08/15 00:53:42;;;;;;;;;;;15.70;96.50;;;;;;5092187;28;20378;-69
2022/08/15 00:56:10;;;;;;;;;;;15.60;96.60;;;;;;5091854;28;20061;-69
2022/08/15 00:58:37;;;;;;;;;;;15.70;96.60;;;;;;5093344;28;20252;-69
2022/08/15 01:01:04;;;;;;;;;;;15.70;96.80;;;;;;5093428;28;19973;-69
2022/08/15 01:03:33;;;;;;;;;;;15.80;96.50;;;;;;5093445;28;19908;-69
2022/08/15 01:06:00;;;;;;;;;;;15.90;96.70;;;;;;5096253;28;19909;-69
2022/08/15 01:08:29;;;;;;;;;;;16.00;96.60;;;;;;5097632;28;19999;-69
2022/08/15 01:10:56;;;;;;;;;;;16.10;95.60;;;;;;5097792;28;19908;-69
2022/08/15 01:13:23;;;;;;;;;;;16.20;96.10;;;;;;5097575;28;19957;-69
2022/08/15 01:15:51;;;;;;;;;;;16.30;96.00;;;;;;5097264;28;19916;-69
2022/08/15 01:18:18;;;;;;;;;;;16.40;95.90;;;;;;5096974;28;19912;-68
2022/08/15 01:20:45;;;;;;;;;;;16.70;95.80;;;;;;5097136;28;19915;-69
2022/08/15 01:23:11;;;;;;;;;;;16.90;94.80;;;;;;5097263;28;19953;-69
2022/08/15 01:25:38;;;;;;;;;;;17.10;95.00;;;;;;5097325;28;19940;-70
2022/08/15 01:28:25;;;;;;;;;;;17.00;94.60;;;;;;5096995;28;19908;-69
2022/08/15 01:30:54;;;;;;;;;;;17.00;94.70;;;;;;5097256;28;19953;-69
2022/08/15 01:33:22;;;;;;;;;;;17.00;95.00;;;;;;5097015;28;19908;-69
2022/08/15 01:35:50;;;;;;;;;;;16.80;95.20;;;;;;5096925;28;19916;-69
2022/08/15 01:38:19;;;;;;;;;;;16.70;95.60;;;;;;5096707;28;19908;-69
2022/08/15 01:41:04;;;;;;;;;;;16.60;94.70;;;;;;5096938;28;19908;-69
2022/08/15 01:43:33;;;;;;;;;;;16.50;95.20;;;;;;5096867;28;19995;-69
2022/08/15 01:46:02;;;;;;;;;;;16.50;95.10;;;;;;5096902;28;19969;-69
2022/08/15 01:48:34;;;;;;;;;;;16.60;95.00;;;;;;5096855;28;19930;-69
2022/08/15 01:51:06;;;;;;;;;;;16.70;95.10;;;;;;5096670;28;19916;-69
2022/08/15 01:53:54;;;;;;;;;;;16.70;94.60;;;;;;5096622;28;19908;-69
2022/08/15 01:56:23;;;;;;;;;;;16.60;94.40;;;;;;5096243;28;19934;-69
2022/08/15 01:58:50;;;;;;;;;;;16.60;94.40;;;;;;5095246;28;19916;-68
2022/08/15 02:01:17;;;;;;;;;;;16.60;94.60;;;;;;5096605;28;19908;-69
2022/08/15 02:03:46;;;;;;;;;;;16.60;94.80;;;;;;5096331;28;20320;-68
2022/08/15 02:06:18;;;;;;;;;;;16.50;94.80;;;;;;5096127;28;19908;-69
2022/08/15 02:08:45;;;;;;;;;;;16.60;94.80;;;;;;5096543;28;19912;-69
2022/08/15 02:11:13;;;;;;;;;;;16.60;94.50;;;;;;5097395;28;19908;-70
2022/08/15 02:13:41;;;;;;;;;;;16.60;95.60;;;;;;5082301;28;20303;-68
2022/08/15 02:16:07;;;;;;;;;;;16.70;94.60;;;;;;5074857;28;19962;-68
2022/08/15 02:18:35;;;;;;;;;;;16.70;95.00;;;;;;5075869;28;19913;-68
2022/08/15 02:21:01;;;;;;;;;;;16.80;95.10;;;;;;5075998;28;19915;-69
2022/08/15 02:23:28;;;;;;;;;;;16.90;95.00;;;;;;5076120;28;19908;-66
2022/08/15 02:25:55;;;;;;;;;;;16.80;93.50;;;;;;5075871;28;19908;-69
2022/08/15 02:28:23;;;;;;;;;;;16.80;94.50;;;;;;5075555;28;19908;-69
2022/08/15 02:30:51;;;;;;;;;;;16.80;94.40;;;;;;5075839;28;19915;-69
2022/08/15 02:33:17;;;;;;;;;;;16.80;93.60;;;;;;5075940;28;20042;-69
2022/08/15 02:35:44;;;;;;;;;;;16.80;94.00;;;;;;5075692;28;19917;-69
2022/08/15 02:38:11;;;;;;;;;;;16.80;94.40;;;;;;5075331;28;19909;-69
2022/08/15 02:40:37;;;;;;;;;;;16.80;94.20;;;;;;5075686;28;19915;-68
2022/08/15 02:43:07;;;;;;;;;;;16.80;93.60;;;;;;5075608;28;19936;-68
2022/08/15 02:45:37;;;;;;;;;;;16.70;94.10;;;;;;5075239;28;20416;-68
2022/08/15 02:48:05;;;;;;;;;;;16.80;95.10;;;;;;5075226;28;20294;-69
2022/08/15 02:50:33;;;;;;;;;;;16.80;93.60;;;;;;5075546;28;19915;-69
2022/08/15 02:53:00;;;;;;;;;;;16.80;94.60;;;;;;5075764;28;19908;-69
2022/08/15 02:55:27;;;;;;;;;;;16.80;93.50;;;;;;5075232;28;19920;-68
2022/08/15 02:57:54;;;;;;;;;;;16.70;93.70;;;;;;5075287;28;19927;-69
2022/08/15 03:00:22;;;;;;;;;;;16.80;94.00;;;;;;5074915;28;19909;-69
2022/08/15 03:02:50;;;;;;;;;;;16.70;93.90;;;;;;5074989;28;19917;-68
2022/08/15 03:05:17;;;;;;;;;;;16.70;94.10;;;;;;5076754;28;19954;-69
2022/08/15 03:07:44;;;;;;;;;;;16.70;94.10;;;;;;5075926;28;19919;-69
2022/08/15 03:10:11;;;;;;;;;;;16.70;93.70;;;;;;5076170;28;19950;-69
2022/08/15 03:12:53;;;;;;;;;;;16.70;93.70;;;;;;5075844;28;20355;-69
2022/08/15 03:15:21;;;;;;;;;;;16.70;93.30;;;;;;5075429;28;19912;-69
2022/08/15 03:17:49;;;;;;;;;;;16.70;94.40;;;;;;5074751;28;19916;-69
2022/08/15 03:20:16;;;;;;;;;;;16.80;93.30;;;;;;5075631;28;20243;-69
2022/08/15 03:22:44;;;;;;;;;;;16.90;93.90;;;;;;5075502;28;19913;-69
2022/08/15 03:25:10;;;;;;;;;;;16.90;92.80;;;;;;5074763;28;19913;-69
2022/08/15 03:27:40;;;;;;;;;;;16.80;93.20;;;;;;5105979;28;19913;-69
2022/08/15 03:30:09;;;;;;;;;;;16.80;93.60;;;;;;5074348;28;19919;-69
2022/08/15 03:32:50;;;;;;;;;;;16.70;93.80;;;;;;5074549;28;19916;-69
2022/08/15 03:35:18;;;;;;;;;;;16.70;93.80;;;;;;5074354;28;20355;-69
2022/08/15 03:37:44;;;;;;;;;;;16.70;93.60;;;;;;5074489;28;19909;-69
2022/08/15 03:40:11;;;;;;;;;;;16.60;94.00;;;;;;5074070;28;20270;-68
2022/08/15 03:42:38;;;;;;;;;;;16.60;94.50;;;;;;5074398;28;19912;-67
2022/08/15 03:45:10;;;;;;;;;;;16.60;94.20;;;;;;5074285;28;19924;-68
2022/08/15 03:47:36;;;;;;;;;;;16.60;94.50;;;;;;5074101;28;19908;-68
2022/08/15 03:50:04;;;;;;;;;;;16.60;93.80;;;;;;5074004;28;20266;-69
2022/08/15 03:52:32;;;;;;;;;;;16.60;93.90;;;;;;5074203;28;19916;-68
2022/08/15 03:55:03;;;;;;;;;;;16.60;93.90;;;;;;5073943;28;20012;-69
2022/08/15 03:57:30;;;;;;;;;;;16.60;94.00;;;;;;5073896;28;19913;-68
2022/08/15 03:59:56;;;;;;;;;;;16.60;94.00;;;;;;5073919;28;19915;-68
2022/08/15 04:02:24;;;;;;;;;;;16.60;94.60;;;;;;5073608;28;20339;-69
2022/08/15 04:04:51;;;;;;;;;;;16.60;94.70;;;;;;5073878;28;19954;-69
2022/08/15 04:07:18;;;;;;;;;;;16.70;94.00;;;;;;5073718;28;19912;-69
2022/08/15 04:09:46;;;;;;;;;;;16.70;93.50;;;;;;5073933;28;19915;-68
2022/08/15 04:12:12;;;;;;;;;;;16.60;94.00;;;;;;5073672;28;19908;-68
2022/08/15 04:14:39;;;;;;;;;;;16.50;94.00;;;;;;5073792;28;19908;-68
2022/08/15 04:17:06;;;;;;;;;;;16.50;94.10;;;;;;5073474;28;19917;-68
2022/08/15 04:19:32;;;;;;;;;;;16.40;94.20;;;;;;5073576;28;19991;-69
2022/08/15 04:22:03;;;;;;;;;;;16.40;94.20;;;;;;5073495;28;20256;-68
2022/08/15 04:24:30;;;;;;;;;;;16.40;94.80;;;;;;5073697;28;19915;-68
2022/08/15 04:26:57;;;;;;;;;;;16.40;94.60;;;;;;5073530;28;19909;-69
2022/08/15 04:29:24;;;;;;;;;;;16.40;95.10;;;;;;5073422;28;19920;-68
2022/08/15 04:31:50;;;;;;;;;;;16.40;95.00;;;;;;5073489;28;19954;-69
2022/08/15 04:34:17;;;;;;;;;;;16.40;95.30;;;;;;5073011;28;19908;-69
2022/08/15 04:36:46;;;;;;;;;;;16.40;95.50;;;;;;5073403;28;20264;-69
2022/08/15 04:39:13;;;;;;;;;;;16.50;94.80;;;;;;5073018;28;19999;-69
2022/08/15 04:41:40;;;;;;;;;;;16.40;95.00;;;;;;5073511;28;19915;-69
2022/08/15 04:44:07;;;;;;;;;;;16.40;95.10;;;;;;5073117;28;20275;-69
2022/08/15 04:46:33;;;;;;;;;;;16.40;95.30;;;;;;5073197;28;19928;-69
2022/08/15 04:49:00;;;;;;;;;;;16.50;95.90;;;;;;5073211;28;19909;-69
2022/08/15 04:51:27;;;;;;;;;;;16.50;95.40;;;;;;5073121;28;19915;-69
2022/08/15 04:53:54;;;;;;;;;;;16.50;95.60;;;;;;5073383;28;20386;-69
2022/08/15 04:56:20;;;;;;;;;;;16.40;95.20;;;;;;5073113;28;19939;-69
2022/08/15 04:58:47;;;;;;;;;;;16.40;95.40;;;;;;5073199;28;20335;-69
2022/08/15 05:01:14;;;;;;;;;;;16.40;95.30;;;;;;5073253;28;20367;-69
2022/08/15 05:03:41;;;;;;;;;;;16.50;95.50;;;;;;5073182;28;20398;-69
2022/08/15 05:06:10;;;;;;;;;;;16.50;95.70;;;;;;5072979;28;19908;-68
2022/08/15 05:08:37;;;;;;;;;;;16.40;96.10;;;;;;5073128;28;20266;-69
2022/08/15 05:11:06;;;;;;;;;;;16.40;95.60;;;;;;5073170;28;19919;-69
2022/08/15 05:13:35;;;;;;;;;;;16.40;96.00;;;;;;5073006;28;19909;-69
2022/08/15 05:16:04;;;;;;;;;;;16.40;96.30;;;;;;5072858;28;20024;-69
2022/08/15 05:18:31;;;;;;;;;;;16.30;96.50;;;;;;5072929;28;19916;-68
2022/08/15 05:20:58;;;;;;;;;;;16.40;96.50;;;;;;5072986;28;20351;-69
2022/08/15 05:23:26;;;;;;;;;;;16.30;96.40;;;;;;5072914;28;19909;-69
2022/08/15 05:25:55;;;;;;;;;;;16.20;96.30;;;;;;5073124;28;19908;-69
2022/08/15 05:28:22;;;;;;;;;;;16.20;96.40;;;;;;5072705;28;19913;-68
2022/08/15 05:30:50;;;;;;;;;;;16.10;96.60;;;;;;5072945;28;20359;-69
2022/08/15 05:33:18;;;;;;;;;;;16.10;96.80;;;;;;5072863;28;19916;-69
2022/08/15 05:35:49;;;;;;;;;;;16.10;97.10;;;;;;5072872;28;19916;-69
2022/08/15 05:38:23;;;;;;;;;;;16.00;97.10;;;;;;5072827;28;19912;-69
2022/08/15 05:41:00;;;;;;;;;;;16.00;97.20;;;;;;5072912;28;19908;-69
2022/08/15 05:43:32;;;;;;;;;;;15.90;97.30;;;;;;5072888;28;20371;-69
2022/08/15 05:46:22;;;;;;;;;;;15.90;97.20;;;;;;5072862;28;20390;-68
2022/08/15 05:48:54;;;;;;;;;;;15.90;97.70;;;;;;5067215;28;19912;-69
2022/08/15 05:51:28;;;;;;;;;;;15.90;97.60;;;;;;5074154;28;20005;-68
2022/08/15 05:53:59;;;;;;;;;;;15.90;97.40;;;;;;5076429;28;19915;-68
2022/08/15 05:56:26;;;;;;;;;;;15.80;97.20;;;;;;5076094;28;19916;-68
2022/08/15 05:58:56;;;;;;;;;;;15.80;97.60;;;;;;5076402;28;19914;-68
2022/08/15 06:01:23;;;;;;;;;;;15.80;97.60;;;;;;5076461;28;19912;-68
2022/08/15 06:03:56;;;;;;;;;;;15.80;97.70;;;;;;5075954;28;19908;-69
2022/08/15 06:06:29;;;;;;;;;;;15.70;97.00;;;;;;5076043;28;20351;-69
2022/08/15 06:08:59;;;;;;;;;;;15.70;96.90;;;;;;5076166;28;20304;-68
2022/08/15 06:11:32;;;;;;;;;;;15.60;97.10;;;;;;5076151;28;19908;-69
2022/08/15 06:14:20;;;;;;;;;;;15.60;97.30;;;;;;5076051;28;20400;-68
2022/08/15 06:16:52;;;;;;;;;;;15.60;97.10;;;;;;5075726;28;19925;-68
2022/08/15 06:19:22;;;;;;;;;;;15.50;97.00;;;;;;5075916;28;19908;-69
2022/08/15 06:21:52;;;;;;;;;;;15.50;97.30;;;;;;5075974;28;19909;-69
2022/08/15 06:24:22;;;;;;;;;;;15.40;97.10;;;;;;5075768;28;20355;-69
2022/08/15 06:26:55;;;;;;;;;;;15.40;97.20;;;;;;5075784;28;19930;-69
2022/08/15 06:29:42;;;;;;;;;;;15.40;97.50;;;;;;5076013;28;19936;-69
2022/08/15 06:32:11;;;;;;;;;;;15.30;97.40;;;;;;5075436;28;20359;-69
2022/08/15 06:34:47;;;;;;;;;;;15.30;97.50;;;;;;5071379;28;19909;-69
2022/08/15 06:37:24;;;;;;;;;;;15.30;96.90;;;;;;5075567;28;20375;-69
2022/08/15 06:39:50;;;;;;;;;;;15.30;97.30;;;;;;5075597;28;20343;-69
2022/08/15 06:42:36;;;;;;;;;;;15.30;97.40;;;;;;5075421;28;19947;-69
2022/08/15 06:45:10;;;;;;;;;;;15.20;97.10;;;;;;5075310;28;20011;-69
2022/08/15 06:47:37;;;;;;;;;;;15.20;96.90;;;;;;5075209;28;19908;-69
2022/08/15 06:50:10;;;;;;;;;;;15.10;97.00;;;;;;5075046;28;19919;-68
2022/08/15 06:52:37;;;;;;;;;;;15.10;97.70;;;;;;5072287;28;20003;-69
2022/08/15 06:55:03;;;;;;;;;;;15.00;97.70;;;;;;5072958;28;19916;-68
2022/08/15 06:57:48;;;;;;;;;;;15.00;97.70;;;;;;5072545;28;19912;-68
2022/08/15 07:00:15;;;;;;;;;;;15.00;97.50;;;;;;5072836;28;19909;-69
2022/08/15 07:02:45;;;;;;;;;;;15.00;97.80;;;;;;5072584;28;19913;-68
2022/08/15 07:05:18;;;;;;;;;;;14.90;97.90;;;;;;5072641;28;19919;-68
2022/08/15 07:07:55;;;;;;;;;;;14.90;97.70;;;;;;5073076;28;19909;-68
2022/08/15 07:10:21;;;;;;;;;;;14.90;97.70;;;;;;5072789;28;20429;-68
2022/08/15 07:13:08;;;;;;;;;;;14.90;97.70;;;;;;5072668;28;19909;-68
2022/08/15 07:15:47;;;;;;;;;;;14.80;98.20;;;;;;5072908;28;19916;-68
2022/08/15 07:18:24;;;;;;;;;;;14.80;98.20;;;;;;5072250;28;20148;-68
2022/08/15 07:20:58;;;;;;;;;;;14.70;98.30;;;;;;5073566;28;20003;-68
2022/08/15 07:23:27;;;;;;;;;;;14.70;97.90;;;;;;5072931;28;19999;-68
2022/08/15 07:25:58;;;;;;;;;;;14.70;98.60;;;;;;5072692;28;19916;-68
2022/08/15 07:28:27;;;;;;;;;;;14.60;98.40;;;;;;5072430;28;20391;-68
2022/08/15 07:30:59;;;;;;;;;;;14.60;98.50;;;;;;5072031;28;19913;-69
2022/08/15 07:33:29;;;;;;;;;;;14.60;99.10;;;;;;5072118;28;20286;-69
2022/08/15 07:36:03;;;;;;;;;;;14.60;98.80;;;;;;5104726;28;19965;-68
2022/08/15 07:38:32;;;;;;;;;;;14.50;98.90;;;;;;5072598;28;19908;-68
2022/08/15 07:41:16;;;;;;;;;;;14.50;99.20;;;;;;5072316;28;20251;-69
2022/08/15 07:43:43;;;;;;;;;;;14.50;99.10;;;;;;5071998;28;19915;-68
2022/08/15 07:46:15;;;;;;;;;;;14.40;99.10;;;;;;5071577;28;19974;-68
2022/08/15 07:48:44;;;;;;;;;;;14.40;99.30;;;;;;5072024;28;20337;-68
2022/08/15 07:51:19;;;;;;;;;;;14.40;99.70;;;;;;5071875;28;20545;-68
2022/08/15 07:53:54;;;;;;;;;;;14.40;99.60;;;;;;5070648;28;20357;-69
2022/08/15 07:56:22;;;;;;;;;;;14.30;99.60;;;;;;5071267;28;19989;-68
2022/08/15 07:58:51;;;;;;;;;;;14.30;99.80;;;;;;5072077;28;20360;-69
2022/08/15 08:01:25;;;;;;;;;;;14.30;99.50;;;;;;5070898;28;19912;-69
2022/08/15 08:03:58;;;;;;;;;;;14.30;99.70;;;;;;5072826;28;19908;-68
2022/08/15 08:06:40;;;;;;;;;;;14.30;99.60;;;;;;5073295;28;20403;-69
2022/08/15 08:09:15;;;;;;;;;;;14.20;99.70;;;;;;5071486;28;19913;-69
2022/08/15 08:11:48;;;;;;;;;;;14.20;99.90;;;;;;5071672;28;19913;-69
2022/08/15 08:14:35;;;;;;;;;;;14.20;99.90;;;;;;5070700;28;19919;-68
2022/08/15 08:17:05;;;;;;;;;;;14.20;99.90;;;;;;5071550;28;19920;-68
2022/08/15 08:19:45;;;;;;;;;;;14.20;99.90;;;;;;5071628;28;19998;-68
2022/08/15 08:22:30;;;;;;;;;;;14.20;99.90;;;;;;5070917;28;19916;-68
2022/08/15 08:25:15;;;;;;;;;;;14.20;99.90;;;;;;5071499;28;19912;-69
2022/08/15 08:27:52;;;;;;;;;;;14.10;99.90;;;;;;5071456;28;19915;-68
2022/08/15 08:30:22;;;;;;;;;;;14.10;99.90;;;;;;5071200;28;19912;-68
2022/08/15 08:33:12;;;;;;;;;;;14.10;99.90;;;;;;5071443;28;19944;-68
2022/08/15 08:35:42;;;;;;;;;;;14.00;99.90;;;;;;5067942;28;19923;-68
2022/08/15 08:38:20;;;;;;;;;;;14.00;99.90;;;;;;5067612;28;20307;-69
2022/08/15 08:43:41;;;;;;;;;;;14.00;99.90;;;;;;5052492;28;20308;-68
2022/08/15 08:46:23;;;;;;;;;;;14.00;99.90;;;;;;5051764;28;20320;-68
2022/08/15 08:48:59;;;;;;;;;;;14.00;99.90;;;;;;5051020;28;19920;-68
2022/08/15 08:51:26;;;;;;;;;;;14.00;99.90;;;;;;5051610;28;19909;-69
2022/08/15 08:54:01;;;;;;;;;;;13.90;99.90;;;;;;5051158;28;20363;-69
2022/08/15 08:56:33;;;;;;;;;;;13.90;99.90;;;;;;5051335;28;19921;-68
2022/08/15 08:59:22;;;;;;;;;;;13.90;99.90;;;;;;5050424;28;20011;-68
2022/08/15 09:01:51;;;;;;;;;;;13.90;99.90;;;;;;5051471;28;20260;-68
2022/08/15 09:04:20;;;;;;;;;;;13.80;99.90;;;;;;5053305;28;19909;-68
2022/08/15 09:06:48;;;;;;;;;;;13.80;99.90;;;;;;5053431;28;20405;-69
2022/08/15 09:09:25;;;;;;;;;;;13.80;99.90;;;;;;5053277;28;19909;-68
2022/08/15 09:11:57;;;;;;;;;;;13.70;99.90;;;;;;5053554;28;19909;-69
2022/08/15 09:14:28;;;;;;;;;;;13.70;99.90;;;;;;5053257;28;20283;-69
2022/08/15 09:16:56;;;;;;;;;;;13.70;99.90;;;;;;5052857;28;20279;-69
2022/08/15 09:19:26;;;;;;;;;;;13.70;99.90;;;;;;5052972;28;20286;-69
2022/08/15 09:21:53;;;;;;;;;;;13.70;99.90;;;;;;5052953;28;19915;-68
2022/08/15 09:24:21;;;;;;;;;;;13.70;99.90;;;;;;5051537;28;19909;-69
2022/08/15 09:26:47;;;;;;;;;;;13.70;99.90;;;;;;5056682;28;19917;-69
2022/08/15 09:29:31;;;;;;;;;;;13.70;99.90;;;;;;5056703;28;19927;-69
2022/08/15 09:32:09;;;;;;;;;;;13.70;99.90;;;;;;5056744;28;20339;-69
2022/08/15 09:34:36;;;;;;;;;;;13.70;99.90;;;;;;5056592;28;19913;-69
2022/08/15 09:37:21;;;;;;;;;;;13.70;99.90;;;;;;5056646;28;20012;-69
2022/08/15 09:40:06;;;;;;;;;;;13.70;99.90;;;;;;5056745;28;19908;-69
2022/08/15 09:42:34;;;;;;;;;;;13.60;99.90;;;;;;5056654;28;19909;-69
2022/08/15 09:45:07;;;;;;;;;;;13.60;99.90;;;;;;5056431;28;19916;-68
2022/08/15 09:47:46;;;;;;;;;;;13.60;99.90;;;;;;5056465;28;20092;-69
2022/08/15 09:50:26;;;;;;;;;;;13.60;99.90;;;;;;5056400;28;20307;-69
2022/08/15 09:53:01;;;;;;;;;;;13.60;99.90;;;;;;5056518;28;19909;-69
2022/08/15 09:55:28;;;;;;;;;;;13.60;99.90;;;;;;5056336;28;19913;-69
2022/08/15 09:57:56;;;;;;;;;;;13.50;99.90;;;;;;5056408;28;19916;-69
2022/08/15 10:00:39;;;;;;;;;;;13.50;99.90;;;;;;5055913;28;19970;-69
2022/08/15 10:03:17;;;;;;;;;;;13.50;99.90;;;;;;5056177;28;20348;-69
2022/08/15 10:05:47;;;;;;;;;;;13.50;99.90;;;;;;5056127;28;19912;-68
2022/08/15 10:08:15;;;;;;;;;;;13.50;99.90;;;;;;5055905;28;19966;-68
2022/08/15 10:10:56;;;;;;;;;;;13.50;99.90;;;;;;5056225;28;19962;-69
2022/08/15 10:13:28;;;;;;;;;;;13.40;99.90;;;;;;5056205;28;20332;-68
2022/08/15 10:15:56;;;;;;;;;;;13.50;99.90;;;;;;5055804;28;19913;-69
2022/08/15 10:18:22;;;;;;;;;;;13.50;99.90;;;;;;5055914;28;19913;-68
2022/08/15 10:20:52;;;;;;;;;;;13.40;99.90;;;;;;5056011;28;19908;-67
2022/08/15 10:23:24;;;;;;;;;;;13.40;99.90;;;;;;5055831;28;19916;-68
2022/08/15 10:26:08;;;;;;;;;;;13.30;99.90;;;;;;5054899;28;20018;-68
2022/08/15 10:28:37;;;;;;;;;;;13.30;99.90;;;;;;5053623;28;20367;-68
2022/08/15 10:31:05;;;;;;;;;;;13.20;99.90;;;;;;5053423;28;19933;-68
2022/08/15 10:33:32;;;;;;;;;;;13.10;99.90;;;;;;5067501;28;19976;-69
2022/08/15 10:36:25;;;;;;;;;;;13.00;99.90;;;;;;5073464;28;20286;-69
2022/08/15 10:38:58;;;;;;;;;;;13.00;99.90;;;;;;5070271;28;19908;-69
2022/08/15 10:41:37;;;;;;;;;;;13.00;99.90;;;;;;5072206;28;19912;-68
2022/08/15 10:44:26;;;;;;;;;;;13.00;99.90;;;;;;5073081;28;19999;-68
2022/08/15 10:47:15;;;;;;;;;;;13.00;99.90;;;;;;5073172;28;19931;-68
2022/08/15 10:49:41;;;;;;;;;;;12.90;99.90;;;;;;5052332;28;19916;-68
2022/08/15 10:52:27;;;;;;;;;;;12.90;99.90;;;;;;5072649;28;19913;-67
2022/08/15 10:54:53;;;;;;;;;;;12.80;99.90;;;;;;5073311;28;19913;-68
2022/08/15 10:57:22;;;;;;;;;;;12.80;99.90;;;;;;5073031;28;20016;-68
2022/08/15 10:59:51;;;;;;;;;;;12.70;99.90;;;;;;5072776;28;19909;-69
2022/08/15 11:02:18;;;;;;;;;;;12.60;99.90;;;;;;5072699;28;19920;-69
2022/08/15 11:04:45;;;;;;;;;;;12.60;99.90;;;;;;5073012;28;19917;-69
2022/08/15 11:07:33;;;;;;;;;;;12.60;99.90;;;;;;5072392;28;19913;-68
2022/08/15 11:10:01;;;;;;;;;;;12.50;99.90;;;;;;5073065;28;19919;-69
2022/08/15 11:12:30;;;;;;;;;;;12.60;99.90;;;;;;5073039;28;19915;-68
2022/08/15 11:15:07;;;;;;;;;;;12.60;99.90;;;;;;5072678;28;20374;-68
2022/08/15 11:17:35;;;;;;;;;;;12.60;99.90;;;;;;5073260;28;19921;-68
2022/08/15 11:20:12;;;;;;;;;;;12.70;99.90;;;;;;5071401;28;20365;-68
2022/08/15 11:22:47;;;;;;;;;;;12.60;99.90;;;;;;5072046;28;19999;-68
2022/08/15 11:25:17;;;;;;;;;;;12.50;99.90;;;;;;5072407;28;19958;-68
2022/08/15 11:27:46;;;;;;;;;;;12.50;99.90;;;;;;5072440;28;20367;-69
2022/08/15 11:30:23;;;;;;;;;;;12.50;99.90;;;;;;5072049;28;19962;-69
2022/08/15 11:32:50;;;;;;;;;;;12.60;99.90;;;;;;5072444;28;19946;-68
2022/08/15 11:35:28;;;;;;;;;;;12.50;99.90;;;;;;5072363;28;19913;-69
2022/08/15 11:37:56;;;;;;;;;;;12.60;99.90;;;;;;5071504;28;20480;-68
2022/08/15 11:40:34;;;;;;;;;;;12.60;99.90;;;;;;5071030;28;19916;-68
2022/08/15 11:43:04;;;;;;;;;;;12.60;99.90;;;;;;5092292;28;19916;-68
2022/08/15 11:45:33;;;;;;;;;;;12.60;99.90;;;;;;5089569;28;20096;-68
2022/08/15 11:48:01;;;;;;;;;;;12.60;99.90;;;;;;5123493;27;19916;-68
2022/08/15 11:50:28;;;;;;;;;;;12.50;99.90;;;;;;5090323;28;19908;-68
2022/08/15 11:52:56;;;;;;;;;;;12.50;99.90;;;;;;5091406;28;19912;-68
2022/08/15 11:55:27;;;;;;;;;;;12.40;99.90;;;;;;5092927;28;19908;-68
2022/08/15 11:57:55;;;;;;;;;;;12.40;99.90;;;;;;5093445;28;19916;-68
2022/08/15 12:00:37;;;;;;;;;;;12.30;99.90;;;;;;5094090;28;19939;-67
2022/08/15 12:03:36;;;;;;;;;;;12.30;99.90;;;;;;5094357;28;19919;-67
2022/08/15 12:06:21;;;;;;;;;;;12.20;99.90;;;;;;5092227;28;20384;-68
2022/08/15 12:08:49;;;;;;;;;;;12.20;99.90;;;;;;5094412;28;19908;-68
2022/08/15 12:11:17;;;;;;;;;;;12.20;99.90;;;;;;5094319;28;19908;-69
2022/08/15 12:13:57;;;;;;;;;;;12.20;99.90;;;;;;5094198;28;19912;-68
2022/08/15 12:16:31;;;;;;;;;;;12.30;99.90;;;;;;5093688;28;19920;-67
2022/08/15 12:19:18;;;;;;;;;;;12.20;99.90;;;;;;5094030;28;19930;-67
2022/08/15 12:21:48;;;;;;;;;;;12.30;99.90;;;;;;5093435;28;19959;-69
2022/08/15 12:24:21;;;;;;;;;;;12.30;99.90;;;;;;5093137;28;19935;-67
2022/08/15 12:26:49;;;;;;;;;;;12.30;99.90;;;;;;5093656;28;19995;-68
2022/08/15 12:29:18;;;;;;;;;;;12.20;99.90;;;;;;5093281;28;19908;-68
2022/08/15 12:31:46;;;;;;;;;;;12.20;99.90;;;;;;5093681;28;20366;-67
2022/08/15 12:34:20;;;;;;;;;;;12.30;99.90;;;;;;5093691;28;19914;-68
2022/08/15 12:36:51;;;;;;;;;;;12.30;99.90;;;;;;5093189;28;19969;-70
2022/08/15 12:39:19;;;;;;;;;;;12.30;99.90;;;;;;5092513;28;20003;-68
2022/08/15 12:41:50;;;;;;;;;;;12.40;99.90;;;;;;5093708;28;19909;-68
2022/08/15 12:44:20;;;;;;;;;;;12.40;99.90;;;;;;5093676;28;20026;-67
2022/08/15 12:46:47;;;;;;;;;;;12.40;99.90;;;;;;5093550;28;20425;-68
2022/08/15 12:49:14;;;;;;;;;;;12.40;99.90;;;;;;5093663;28;19973;-69
2022/08/15 12:51:41;;;;;;;;;;;12.50;99.90;;;;;;5093077;28;19912;-69
2022/08/15 12:54:07;;;;;;;;;;;12.50;99.90;;;;;;5093376;28;19912;-69
2022/08/15 12:56:35;;;;;;;;;;;12.60;99.90;;;;;;5093311;28;19920;-69
2022/08/15 12:59:05;;;;;;;;;;;12.60;99.90;;;;;;5093457;28;19908;-68
2022/08/15 13:01:32;;;;;;;;;;;12.70;99.90;;;;;;5099295;28;19909;-68
2022/08/15 13:04:04;;;;;;;;;;;12.60;99.90;;;;;;5100251;28;19979;-68
2022/08/15 13:06:42;;;;;;;;;;;12.70;99.90;;;;;;5100247;28;19908;-68
2022/08/15 13:09:10;;;;;;;;;;;12.70;99.90;;;;;;5100293;28;19916;-68
2022/08/15 13:11:39;;;;;;;;;;;12.60;99.90;;;;;;5100217;28;20374;-68
2022/08/15 13:14:06;;;;;;;;;;;12.60;99.90;;;;;;5099858;28;20338;-68
2022/08/15 13:16:35;;;;;;;;;;;12.60;99.90;;;;;;5099893;28;19925;-68
2022/08/15 13:19:02;;;;;;;;;;;12.60;99.90;;;;;;5132946;27;20419;-68
2022/08/15 13:24:14;;;;;;;;;;;12.60;99.90;;;;;;5099889;28;19918;-68
2022/08/15 13:26:42;;;;;;;;;;;12.60;99.90;;;;;;5100006;28;19916;-68
2022/08/15 13:29:09;;;;;;;;;;;12.60;99.90;;;;;;5099778;28;19909;-68
2022/08/15 13:31:36;;;;;;;;;;;12.60;99.90;;;;;;5099928;28;20351;-68
2022/08/15 13:34:03;;;;;;;;;;;12.60;99.90;;;;;;5099749;28;19908;-68
2022/08/15 13:36:31;;;;;;;;;;;12.70;99.90;;;;;;5099861;28;19916;-68
2022/08/15 13:39:00;;;;;;;;;;;12.80;99.90;;;;;;5100001;28;19908;-68
2022/08/15 13:41:27;;;;;;;;;;;12.70;99.90;;;;;;5099862;28;19908;-68
2022/08/15 13:43:54;;;;;;;;;;;12.80;99.90;;;;;;5099791;28;19908;-68
2022/08/15 13:46:25;;;;;;;;;;;12.80;99.90;;;;;;5099351;28;20317;-68
2022/08/15 13:48:53;;;;;;;;;;;12.80;99.90;;;;;;5099919;28;20281;-68
2022/08/15 13:51:25;;;;;;;;;;;12.80;99.90;;;;;;5099865;28;19908;-67
2022/08/15 13:53:56;;;;;;;;;;;12.80;99.90;;;;;;5099892;28;19915;-69
2022/08/15 13:56:23;;;;;;;;;;;12.80;99.90;;;;;;5099521;28;19922;-68
2022/08/15 13:58:50;;;;;;;;;;;12.80;99.90;;;;;;5099704;28;19908;-68
2022/08/15 14:01:20;;;;;;;;;;;12.70;99.90;;;;;;5099629;28;19963;-69
2022/08/15 14:03:48;;;;;;;;;;;12.70;99.90;;;;;;5099819;28;19908;-69
2022/08/15 14:06:15;;;;;;;;;;;12.70;99.90;;;;;;5099384;28;20376;-68
2022/08/15 14:08:45;;;;;;;;;;;12.80;99.90;;;;;;5099623;28;20011;-69
2022/08/15 14:11:12;;;;;;;;;;;12.80;99.90;;;;;;5098372;28;19908;-68
2022/08/15 14:13:39;;;;;;;;;;;12.70;99.90;;;;;;5096114;28;19969;-68
2022/08/15 14:16:05;;;;;;;;;;;12.60;99.90;;;;;;5095968;28;20334;-69
2022/08/15 14:18:36;;;;;;;;;;;12.60;99.90;;;;;;5096393;28;19908;-68
2022/08/15 14:21:04;;;;;;;;;;;12.60;99.90;;;;;;5096323;28;20309;-67
2022/08/15 14:23:31;;;;;;;;;;;12.70;99.90;;;;;;5096311;28;20003;-67
2022/08/15 14:25:58;;;;;;;;;;;12.70;99.90;;;;;;5096163;28;19912;-68
2022/08/15 14:28:25;;;;;;;;;;;12.70;99.90;;;;;;5095935;28;20370;-68
2022/08/15 14:30:53;;;;;;;;;;;12.70;99.90;;;;;;5096053;28;19915;-67
2022/08/15 14:33:20;;;;;;;;;;;12.70;99.90;;;;;;5128563;27;19909;-68
2022/08/15 14:35:47;;;;;;;;;;;12.70;99.90;;;;;;5095960;28;20286;-68
2022/08/15 14:38:14;;;;;;;;;;;12.60;99.90;;;;;;5095867;28;19934;-68
2022/08/15 14:40:41;;;;;;;;;;;12.60;99.90;;;;;;5095912;28;19908;-68
2022/08/15 14:43:14;;;;;;;;;;;12.60;99.90;;;;;;5095938;28;19908;-68
2022/08/15 14:45:41;;;;;;;;;;;12.60;99.90;;;;;;5126858;27;19920;-68